Time;durP1;ratioP1;P1;durP2;ratioP2;P2;SDS_P1;SDS_P2;PMS_P1;PMS_P2;Temp;Humidity;BMP_temperature;BMP_pressure;BME280_temperature;BME280_humidity;BME280_pressure;Samples;Min_cycle;Max_cycle;Signal;HPM_P1;HPM_P2
2021/08/07 00:02:03;;;;;;;34.42;30.77;;;16.10;99.90;;;;;;6221456;23;20016;-77
2021/08/07 00:04:29;;;;;;;33.88;25.75;;;16.10;99.90;;;;;;6185170;23;20432;-78
2021/08/07 00:06:55;;;;;;;39.92;35.97;;;16.00;99.90;;;;;;6217171;23;20016;-77
2021/08/07 00:09:21;;;;;;;42.97;35.25;;;16.00;99.90;;;;;;6221132;23;20036;-77
2021/08/07 00:11:47;;;;;;;37.40;31.73;;;16.00;99.90;;;;;;6222236;23;20009;-76
2021/08/07 00:14:13;;;;;;;37.78;27.30;;;16.00;99.90;;;;;;6195115;23;20039;-77
2021/08/07 00:16:39;;;;;;;22.85;18.48;;;16.00;99.90;;;;;;6221756;23;20017;-77
2021/08/07 00:19:04;;;;;;;60.97;46.03;;;15.90;99.90;;;;;;6212701;23;20012;-77
2021/08/07 00:21:30;;;;;;;27.70;22.98;;;16.00;99.90;;;;;;6211720;23;20114;-76
2021/08/07 00:23:56;;;;;;;41.60;35.63;;;16.00;99.90;;;;;;6183792;23;20496;-77
2021/08/07 00:26:22;;;;;;;48.42;35.60;;;16.00;99.90;;;;;;6222164;23;20051;-77
2021/08/07 00:28:48;;;;;;;29.80;26.17;;;16.00;99.90;;;;;;6185840;23;20039;-76
2021/08/07 00:31:14;;;;;;;39.05;35.00;;;16.00;99.90;;;;;;6184387;23;20024;-76
2021/08/07 00:33:39;;;;;;;23.38;21.08;;;16.00;99.90;;;;;;6215457;23;20044;-75
2021/08/07 00:36:05;;;;;;;24.35;21.58;;;16.00;99.90;;;;;;6184952;23;20108;-75
2021/08/07 00:38:31;;;;;;;31.15;25.73;;;16.10;99.90;;;;;;6221131;23;20016;-76
2021/08/07 00:40:57;;;;;;;32.75;29.40;;;16.10;99.90;;;;;;6223314;23;20020;-76
2021/08/07 00:43:23;;;;;;;32.17;26.50;;;16.10;99.90;;;;;;6224147;23;20020;-76
2021/08/07 00:45:49;;;;;;;69.68;60.75;;;16.10;99.90;;;;;;6186988;23;20016;-76
2021/08/07 00:48:15;;;;;;;34.95;30.73;;;16.10;99.90;;;;;;6192488;23;20012;-77
2021/08/07 00:50:45;;;;;;;24.63;22.00;;;16.10;99.90;;;;;;6224267;23;20017;-76
2021/08/07 00:53:12;;;;;;;32.60;27.35;;;16.10;99.90;;;;;;6212387;23;20016;-76
2021/08/07 00:55:39;;;;;;;41.80;37.28;;;16.10;99.90;;;;;;6223823;23;20017;-76
2021/08/07 00:58:04;;;;;;;38.03;32.28;;;16.10;99.90;;;;;;6223810;23;20378;-76
2021/08/07 01:00:32;;;;;;;27.80;24.90;;;16.20;99.90;;;;;;6223778;23;20008;-75
2021/08/07 01:03:09;;;;;;;39.13;34.88;;;16.20;99.90;;;;;;6220405;23;20199;-76
2021/08/07 01:05:43;;;;;;;46.90;41.45;;;16.20;99.90;;;;;;6223637;23;20016;-76
2021/08/07 01:08:18;;;;;;;23.25;17.70;;;16.20;99.90;;;;;;6213571;23;20019;-75
2021/08/07 01:11:03;;;;;;;30.90;27.60;;;16.20;99.90;;;;;;6213685;23;20019;-76
2021/08/07 01:13:35;;;;;;;20.95;17.85;;;16.20;99.90;;;;;;6186086;23;20151;-76
2021/08/07 01:16:10;;;;;;;30.13;27.00;;;16.20;99.90;;;;;;6213995;23;20084;-76
2021/08/07 01:18:39;;;;;;;27.08;23.42;;;16.20;99.90;;;;;;6213094;23;20114;-76
2021/08/07 01:21:11;;;;;;;24.60;22.13;;;16.20;99.90;;;;;;6224145;23;20009;-76
2021/08/07 01:23:50;;;;;;;25.77;22.90;;;16.20;99.90;;;;;;6222614;23;20012;-77
2021/08/07 01:26:36;;;;;;;24.02;19.95;;;16.10;99.90;;;;;;6196599;23;20539;-76
2021/08/07 01:29:04;;;;;;;40.35;32.13;;;16.20;99.90;;;;;;6213280;23;20038;-76
2021/08/07 01:31:31;;;;;;;45.92;33.53;;;16.10;99.90;;;;;;6213622;23;20318;-76
2021/08/07 01:33:57;;;;;;;31.00;26.17;;;16.20;99.90;;;;;;6186914;23;20028;-76
2021/08/07 01:36:23;;;;;;;22.17;19.40;;;16.10;99.90;;;;;;6223807;23;20433;-76
2021/08/07 01:38:49;;;;;;;33.50;26.17;;;16.10;99.90;;;;;;6185643;23;20086;-76
2021/08/07 01:41:18;;;;;;;21.23;18.70;;;16.10;99.90;;;;;;6223520;23;20292;-76
2021/08/07 01:43:45;;;;;;;17.30;14.20;;;16.10;99.90;;;;;;6186547;23;20020;-76
2021/08/07 01:46:13;;;;;;;25.58;22.73;;;16.10;99.90;;;;;;6223093;23;20009;-76
2021/08/07 01:48:47;;;;;;;17.75;15.35;;;16.30;99.90;;;;;;6217814;23;20053;-76
2021/08/07 01:51:25;;;;;;;30.48;21.80;;;16.20;99.90;;;;;;6223361;23;20039;-76
2021/08/07 01:53:54;;;;;;;20.88;18.45;;;16.20;99.90;;;;;;6195113;23;20085;-76
2021/08/07 01:56:29;;;;;;;23.33;18.38;;;16.10;99.90;;;;;;6223101;23;20016;-75
2021/08/07 01:59:03;;;;;;;24.20;21.10;;;16.10;99.90;;;;;;6213251;23;20100;-75
2021/08/07 02:01:30;;;;;;;32.22;24.10;;;16.10;99.90;;;;;;6223212;23;20019;-76
2021/08/07 02:03:58;;;;;;;29.20;25.80;;;16.10;99.90;;;;;;6216633;23;20024;-75
2021/08/07 02:06:25;;;;;;;23.55;20.92;;;16.10;99.90;;;;;;6212900;23;20447;-76
2021/08/07 02:08:52;;;;;;;27.48;24.73;;;16.20;99.90;;;;;;6184440;23;20466;-76
2021/08/07 02:11:19;;;;;;;18.88;14.80;;;16.10;99.90;;;;;;6212867;23;20052;-75
2021/08/07 02:13:45;;;;;;;17.50;14.95;;;16.10;99.90;;;;;;6222936;23;20059;-76
2021/08/07 02:16:12;;;;;;;16.83;15.07;;;16.20;99.90;;;;;;6186670;23;20082;-76
2021/08/07 02:18:40;;;;;;;25.20;22.65;;;16.10;99.90;;;;;;6191014;23;20012;-75
2021/08/07 02:21:06;;;;;;;16.52;13.18;;;16.10;99.90;;;;;;6195986;23;20047;-75
2021/08/07 02:23:33;;;;;;;28.35;22.52;;;16.10;99.90;;;;;;6211874;23;20069;-76
2021/08/07 02:26:02;;;;;;;33.30;29.83;;;16.10;99.90;;;;;;6196398;23;20013;-76
2021/08/07 02:28:29;;;;;;;25.45;18.65;;;16.10;99.90;;;;;;6222865;23;20372;-75
2021/08/07 02:30:58;;;;;;;28.10;22.33;;;16.00;99.90;;;;;;6223003;23;20103;-76
2021/08/07 02:33:26;;;;;;;20.95;17.30;;;16.00;99.90;;;;;;6218735;23;20024;-76
2021/08/07 02:35:53;;;;;;;19.65;14.15;;;15.90;99.90;;;;;;6223019;23;20445;-76
2021/08/07 02:38:20;;;;;;;17.48;12.65;;;15.90;99.90;;;;;;6221965;23;20499;-75
2021/08/07 02:40:46;;;;;;;17.40;14.85;;;15.90;99.90;;;;;;6223044;23;20044;-76
2021/08/07 02:43:14;;;;;;;18.05;14.38;;;15.90;99.90;;;;;;6222667;23;20023;-76
2021/08/07 02:45:40;;;;;;;22.20;19.88;;;15.80;99.90;;;;;;6212698;23;20009;-76
2021/08/07 02:48:06;;;;;;;19.77;17.52;;;15.80;99.90;;;;;;6212632;23;20012;-75
2021/08/07 02:50:33;;;;;;;18.48;16.60;;;15.70;99.90;;;;;;6222482;23;20016;-75
2021/08/07 02:53:00;;;;;;;28.50;25.27;;;15.60;99.90;;;;;;6184623;23;20028;-75
2021/08/07 02:55:26;;;;;;;19.10;14.25;;;15.60;99.90;;;;;;6184966;23;20099;-76
2021/08/07 02:57:53;;;;;;;25.92;22.90;;;15.60;99.90;;;;;;6195684;23;20385;-75
2021/08/07 03:00:19;;;;;;;20.88;16.85;;;15.50;99.90;;;;;;6185796;23;20040;-75
2021/08/07 03:02:45;;;;;;;27.23;24.52;;;15.50;99.90;;;;;;6185990;23;20162;-75
2021/08/07 03:05:11;;;;;;;37.90;34.17;;;15.50;99.90;;;;;;6185761;23;20012;-76
2021/08/07 03:07:37;;;;;;;24.17;21.73;;;15.50;99.90;;;;;;6212214;23;20020;-76
2021/08/07 03:10:08;;;;;;;12.35;10.10;;;15.40;99.90;;;;;;6221724;23;20005;-76
2021/08/07 03:12:34;;;;;;;14.23;12.20;;;15.30;99.90;;;;;;6212288;23;20074;-76
2021/08/07 03:15:00;;;;;;;15.68;12.25;;;15.30;99.90;;;;;;6185561;23;20036;-75
2021/08/07 03:17:27;;;;;;;22.58;19.33;;;15.30;99.90;;;;;;6212650;23;20044;-76
2021/08/07 03:19:53;;;;;;;17.85;15.85;;;15.30;99.90;;;;;;6211969;23;20012;-76
2021/08/07 03:22:19;;;;;;;16.05;14.60;;;15.20;99.90;;;;;;6211857;23;20394;-75
2021/08/07 03:24:45;;;;;;;15.02;13.05;;;15.20;99.90;;;;;;6221504;23;20490;-76
2021/08/07 03:27:11;;;;;;;18.23;16.13;;;15.20;99.90;;;;;;6222203;23;20016;-76
2021/08/07 03:29:37;;;;;;;16.23;9.40;;;15.20;99.90;;;;;;6212692;23;20088;-76
2021/08/07 03:32:15;;;;;;;17.77;12.27;;;15.10;99.90;;;;;;6198088;23;20021;-75
2021/08/07 03:34:40;;;;;;;15.65;14.00;;;15.10;99.90;;;;;;6186337;23;20058;-76
2021/08/07 03:37:07;;;;;;;18.98;15.57;;;15.10;99.90;;;;;;6222683;23;20013;-76
2021/08/07 03:39:33;;;;;;;16.67;14.55;;;15.00;99.90;;;;;;6221179;23;20043;-76
2021/08/07 03:41:59;;;;;;;21.15;18.88;;;15.00;99.90;;;;;;6222378;23;20021;-76
2021/08/07 03:44:25;;;;;;;19.27;16.67;;;15.00;99.90;;;;;;6222152;23;20012;-75
2021/08/07 03:46:51;;;;;;;14.88;13.30;;;14.90;99.90;;;;;;6185051;23;20492;-76
2021/08/07 03:49:17;;;;;;;14.93;13.43;;;14.90;99.90;;;;;;6185057;23;20114;-76
2021/08/07 03:51:43;;;;;;;18.20;16.30;;;14.90;99.90;;;;;;6195481;23;20016;-75
2021/08/07 03:54:10;;;;;;;22.85;13.38;;;14.90;99.90;;;;;;6220682;23;20078;-76
2021/08/07 03:56:36;;;;;;;13.60;10.55;;;14.80;99.90;;;;;;6185442;23;20024;-76
2021/08/07 03:59:02;;;;;;;10.60;9.18;;;14.80;99.90;;;;;;6221757;23;20091;-76
2021/08/07 04:01:27;;;;;;;12.52;10.75;;;14.80;99.90;;;;;;6184556;23;20016;-75
2021/08/07 04:03:53;;;;;;;13.95;9.35;;;14.80;99.90;;;;;;6216250;23;20020;-76
2021/08/07 04:06:19;;;;;;;15.00;11.77;;;14.80;99.90;;;;;;6193276;23;20078;-76
2021/08/07 04:08:44;;;;;;;25.13;18.05;;;14.80;99.90;;;;;;6184504;23;20017;-75
2021/08/07 04:11:10;;;;;;;19.05;9.52;;;14.80;99.90;;;;;;6195279;23;20409;-75
2021/08/07 04:13:36;;;;;;;17.42;15.57;;;14.80;99.90;;;;;;6212460;23;20024;-76
2021/08/07 04:16:03;;;;;;;14.77;13.35;;;14.80;99.90;;;;;;6225546;23;20162;-75
2021/08/07 04:18:29;;;;;;;16.90;10.90;;;14.70;99.90;;;;;;6215176;23;20020;-76
2021/08/07 04:20:54;;;;;;;16.52;10.57;;;14.70;99.90;;;;;;6215471;23;20329;-75
2021/08/07 04:23:20;;;;;;;16.67;10.32;;;14.70;99.90;;;;;;6187661;23;20051;-75
2021/08/07 04:25:46;;;;;;;21.27;14.25;;;14.70;99.90;;;;;;6198740;23;20012;-76
2021/08/07 04:28:12;;;;;;;14.35;11.52;;;14.70;99.90;;;;;;6225338;23;20106;-76
2021/08/07 04:30:38;;;;;;;12.32;9.20;;;14.70;99.90;;;;;;6215262;23;20019;-76
2021/08/07 04:33:04;;;;;;;15.88;11.40;;;14.70;99.90;;;;;;6223678;23;20012;-75
2021/08/07 04:35:29;;;;;;;15.70;12.32;;;14.70;99.90;;;;;;6225344;23;20020;-76
2021/08/07 04:37:57;;;;;;;15.65;9.32;;;14.80;99.90;;;;;;6197982;23;20013;-76
2021/08/07 04:40:26;;;;;;;19.38;10.65;;;14.70;99.90;;;;;;6187326;23;20016;-76
2021/08/07 04:42:52;;;;;;;17.92;12.32;;;14.70;99.90;;;;;;6224880;23;20040;-76
2021/08/07 04:45:18;;;;;;;16.17;9.80;;;14.70;99.90;;;;;;6188369;23;20416;-76
2021/08/07 04:47:55;;;;;;;21.55;10.65;;;14.70;99.90;;;;;;6215117;23;20009;-75
2021/08/07 04:50:22;;;;;;;12.65;10.82;;;14.80;99.90;;;;;;6224925;23;20123;-76
2021/08/07 04:52:47;;;;;;;18.50;12.43;;;14.80;99.90;;;;;;6214485;23;20035;-75
2021/08/07 04:55:14;;;;;;;17.92;14.77;;;14.80;99.90;;;;;;6224749;23;20013;-75
2021/08/07 04:57:40;;;;;;;17.00;8.95;;;14.90;99.90;;;;;;6225302;23;20019;-76
2021/08/07 05:00:07;;;;;;;14.48;10.90;;;14.80;99.90;;;;;;6187953;23;20115;-75
2021/08/07 05:02:32;;;;;;;19.25;9.48;;;14.90;99.90;;;;;;6225783;23;20013;-75
2021/08/07 05:04:58;;;;;;;17.55;7.15;;;14.90;99.90;;;;;;6188788;23;20019;-75
2021/08/07 05:07:24;;;;;;;13.85;10.52;;;14.90;99.90;;;;;;6192840;23;20336;-76
2021/08/07 05:09:49;;;;;;;15.95;8.88;;;15.00;99.90;;;;;;6188296;23;20062;-75
2021/08/07 05:12:15;;;;;;;16.60;9.65;;;15.00;99.90;;;;;;6188184;23;20038;-75
2021/08/07 05:14:41;;;;;;;18.23;10.07;;;15.00;99.90;;;;;;6225633;23;20021;-76
2021/08/07 05:17:07;;;;;;;22.27;11.95;;;15.00;99.90;;;;;;6215424;23;20035;-75
2021/08/07 05:19:32;;;;;;;22.40;15.57;;;15.00;99.90;;;;;;6189074;23;20020;-76
2021/08/07 05:21:58;;;;;;;15.73;8.95;;;15.10;99.90;;;;;;6188961;23;20056;-76
2021/08/07 05:24:24;;;;;;;21.70;13.73;;;15.10;99.90;;;;;;6224456;23;20032;-76
2021/08/07 05:26:49;;;;;;;15.27;10.20;;;15.20;99.90;;;;;;6197469;23;20506;-76
2021/08/07 05:29:15;;;;;;;17.73;11.75;;;15.30;99.90;;;;;;6224539;23;20099;-76
2021/08/07 05:31:41;;;;;;;21.15;13.38;;;15.30;99.90;;;;;;6223916;23;20277;-76
2021/08/07 05:34:06;;;;;;;21.35;16.88;;;15.40;99.90;;;;;;6187135;23;20018;-76
2021/08/07 05:36:32;;;;;;;16.33;10.48;;;15.40;99.90;;;;;;6224164;23;20013;-76
2021/08/07 05:38:58;;;;;;;30.90;10.38;;;15.60;99.90;;;;;;6212893;23;20076;-77
2021/08/07 05:41:23;;;;;;;24.35;10.05;;;15.80;99.90;;;;;;6187250;23;20013;-77
2021/08/07 05:43:49;;;;;;;24.90;9.32;;;16.10;99.90;;;;;;6197160;23;20016;-76
2021/08/07 05:46:15;;;;;;;14.52;9.48;;;16.30;99.90;;;;;;6224016;23;20086;-77
2021/08/07 05:48:41;;;;;;;19.25;15.57;;;16.30;99.90;;;;;;6192846;23;20360;-76
2021/08/07 05:51:06;;;;;;;19.23;17.00;;;16.40;99.90;;;;;;6197148;23;20013;-75
2021/08/07 05:53:32;;;;;;;24.35;18.75;;;16.70;99.90;;;;;;6223023;23;20094;-75
2021/08/07 05:55:58;;;;;;;25.48;22.55;;;16.80;99.90;;;;;;6224293;23;20348;-75
2021/08/07 05:58:24;;;;;;;23.80;21.40;;;16.80;99.90;;;;;;6224042;23;20432;-76
2021/08/07 06:00:51;;;;;;;33.40;30.13;;;16.90;99.90;;;;;;6224492;23;20416;-76
2021/08/07 06:03:17;;;;;;;35.33;31.98;;;17.10;99.90;;;;;;6221317;23;20040;-79
2021/08/07 06:05:43;;;;;;;41.45;36.47;;;17.10;99.90;;;;;;6187888;23;20412;-74
2021/08/07 06:08:09;;;;;;;56.85;50.70;;;17.00;99.90;;;;;;6186566;23;20038;-76
2021/08/07 06:10:36;;;;;;;44.40;39.60;;;17.00;99.90;;;;;;6187222;23;20017;-76
2021/08/07 06:13:02;;;;;;;36.58;32.95;;;16.90;99.90;;;;;;6196857;23;20017;-75
2021/08/07 06:15:28;;;;;;;25.08;22.48;;;17.00;99.90;;;;;;6196611;23;20019;-76
2021/08/07 06:17:56;;;;;;;34.78;28.70;;;17.00;99.90;;;;;;6184604;23;20019;-75
2021/08/07 06:20:23;;;;;;;61.72;54.33;;;17.20;99.90;;;;;;6220092;23;20013;-74
2021/08/07 06:22:49;;;;;;;34.25;31.27;;;17.20;99.90;;;;;;6222779;23;20056;-73
2021/08/07 06:25:15;;;;;;;54.65;41.20;;;17.30;99.90;;;;;;6222974;23;20012;-75
2021/08/07 06:27:40;;;;;;;32.17;27.80;;;17.40;99.90;;;;;;6222555;23;20340;-74
2021/08/07 06:30:07;;;;;;;53.85;48.22;;;17.50;99.90;;;;;;6184822;23;20739;-73
2021/08/07 06:32:33;;;;;;;52.65;47.30;;;17.70;99.90;;;;;;6212683;23;20016;-75
2021/08/07 06:34:59;;;;;;;59.08;51.65;;;17.70;99.90;;;;;;6213168;23;20024;-74
2021/08/07 06:37:24;;;;;;;41.90;37.75;;;17.80;99.90;;;;;;6221957;23;20012;-74
2021/08/07 06:39:50;;;;;;;68.68;61.35;;;17.90;99.90;;;;;;6221546;23;20009;-74
2021/08/07 06:42:16;;;;;;;75.40;66.15;;;18.00;99.90;;;;;;6222549;23;20021;-74
2021/08/07 06:44:42;;;;;;;70.75;63.10;;;18.10;99.90;;;;;;6221934;23;20017;-73
2021/08/07 06:47:07;;;;;;;138.93;104.30;;;18.10;99.90;;;;;;6222103;23;20068;-74
2021/08/07 06:49:33;;;;;;;88.65;77.38;;;18.20;99.90;;;;;;6215355;23;20015;-74
2021/08/07 06:51:59;;;;;;;106.80;91.20;;;18.30;99.90;;;;;;6210663;23;20021;-73
2021/08/07 06:54:24;;;;;;;82.07;69.47;;;18.40;99.90;;;;;;6221152;23;20074;-78
2021/08/07 06:56:52;;;;;;;61.17;54.50;;;18.40;99.90;;;;;;6195293;23;20043;-73
2021/08/07 06:59:19;;;;;;;81.35;68.93;;;18.50;99.90;;;;;;6195170;23;20025;-75
2021/08/07 07:01:44;;;;;;;97.28;78.00;;;18.30;99.90;;;;;;6222742;23;20012;-77
2021/08/07 07:04:10;;;;;;;96.50;82.10;;;18.40;99.90;;;;;;6190447;23;20096;-74
2021/08/07 07:06:36;;;;;;;67.80;60.88;;;18.50;99.90;;;;;;6218223;23;20020;-76
2021/08/07 07:09:02;;;;;;;184.25;133.82;;;18.50;99.90;;;;;;6210280;23;20035;-75
2021/08/07 07:11:27;;;;;;;147.95;112.75;;;18.60;99.90;;;;;;6221510;23;20017;-75
2021/08/07 07:13:53;;;;;;;111.10;88.13;;;18.60;99.90;;;;;;6184141;23;20021;-75
2021/08/07 07:16:19;;;;;;;118.72;92.25;;;18.60;99.90;;;;;;6194569;23;20017;-75
2021/08/07 07:18:44;;;;;;;47.40;42.97;;;18.50;99.90;;;;;;6218230;23;20368;-75
2021/08/07 07:21:10;;;;;;;108.60;85.10;;;18.30;99.90;;;;;;6214858;23;20016;-75
2021/08/07 07:23:36;;;;;;;135.30;100.38;;;18.40;99.90;;;;;;6218949;23;20028;-75
2021/08/07 07:26:02;;;;;;;113.88;91.95;;;18.40;99.90;;;;;;6184441;23;20016;-76
2021/08/07 07:28:28;;;;;;;90.25;78.97;;;18.20;99.90;;;;;;6211426;23;20040;-78
2021/08/07 07:30:53;;;;;;;84.90;73.88;;;18.30;99.90;;;;;;6221965;23;20443;-74
2021/08/07 07:33:19;;;;;;;73.55;65.10;;;18.20;99.90;;;;;;6194461;23;20027;-75
2021/08/07 07:35:45;;;;;;;116.45;84.72;;;18.30;99.90;;;;;;6195339;23;20360;-75
2021/08/07 07:38:11;;;;;;;77.72;68.18;;;18.40;99.90;;;;;;6221581;23;20009;-75
2021/08/07 07:40:37;;;;;;;100.90;83.65;;;18.40;99.90;;;;;;6195077;23;20037;-78
2021/08/07 07:43:03;;;;;;;108.97;81.80;;;18.40;99.90;;;;;;6185981;23;20009;-74
2021/08/07 07:45:29;;;;;;;76.93;68.50;;;18.20;99.90;;;;;;6222684;23;20498;-74
2021/08/07 07:47:54;;;;;;;101.70;78.03;;;18.30;99.90;;;;;;6185621;23;20414;-75
2021/08/07 07:50:20;;;;;;;62.15;55.75;;;18.30;99.90;;;;;;6213019;23;20091;-75
2021/08/07 07:52:47;;;;;;;83.10;71.28;;;18.30;99.90;;;;;;6212840;23;20005;-74
2021/08/07 07:55:13;;;;;;;136.48;108.50;;;18.30;99.90;;;;;;6221733;23;20027;-74
2021/08/07 07:57:39;;;;;;;122.22;96.45;;;18.40;99.90;;;;;;6222407;23;20027;-80
2021/08/07 08:00:07;;;;;;;85.50;75.95;;;18.50;99.90;;;;;;6186484;23;20012;-77
2021/08/07 08:02:33;;;;;;;69.03;60.85;;;18.40;99.90;;;;;;6185766;23;20333;-78
2021/08/07 08:05:01;;;;;;;62.50;56.50;;;18.40;99.90;;;;;;6161203;23;20092;-76
2021/08/07 08:07:27;;;;;;;60.38;54.58;;;18.50;99.90;;;;;;6161258;23;20147;-76
2021/08/07 08:09:53;;;;;;;107.03;93.05;;;18.60;99.90;;;;;;6185175;23;20016;-76
2021/08/07 08:12:18;;;;;;;60.60;54.70;;;18.70;99.90;;;;;;6212888;23;20286;-78
2021/08/07 08:14:44;;;;;;;73.85;66.05;;;18.70;99.90;;;;;;6161028;23;20013;-76
2021/08/07 08:17:10;;;;;;;55.30;44.65;;;18.80;99.90;;;;;;6186496;23;20013;-75
2021/08/07 08:19:37;;;;;;;108.10;93.50;;;18.80;99.90;;;;;;6190516;23;20096;-74
2021/08/07 08:22:04;;;;;;;61.95;55.25;;;18.90;99.90;;;;;;6181322;23;20032;-79
2021/08/07 08:24:30;;;;;;;73.43;65.40;;;19.00;99.90;;;;;;6181225;23;20100;-78
2021/08/07 08:26:56;;;;;;;46.58;41.38;;;19.00;99.90;;;;;;6181809;23;20051;-79
2021/08/07 08:29:22;;;;;;;75.50;67.45;;;19.00;99.90;;;;;;6183804;23;20013;-78
2021/08/07 08:31:48;;;;;;;93.57;73.28;;;18.90;99.90;;;;;;6181356;23;20009;-75
2021/08/07 08:34:13;;;;;;;91.13;74.85;;;19.10;99.90;;;;;;6187548;23;20298;-76
2021/08/07 08:36:39;;;;;;;77.07;63.30;;;19.20;99.90;;;;;;6183231;23;20017;-79
2021/08/07 08:39:05;;;;;;;99.20;88.85;;;19.20;99.90;;;;;;6180575;23;20417;-77
2021/08/07 08:41:36;;;;;;;79.65;70.72;;;19.20;99.90;;;;;;6190978;23;20013;-75
2021/08/07 08:44:03;;;;;;;71.50;62.92;;;19.30;99.90;;;;;;6192828;23;20101;-77
2021/08/07 08:46:30;;;;;;;98.30;83.72;;;19.20;99.90;;;;;;6182115;23;20017;-76
2021/08/07 08:48:56;;;;;;;113.97;100.55;;;19.40;99.90;;;;;;6190491;23;20013;-76
2021/08/07 08:51:25;;;;;;;69.65;62.03;;;19.30;99.90;;;;;;6179938;23;20017;-77
2021/08/07 08:53:52;;;;;;;69.97;62.90;;;19.30;99.90;;;;;;6179251;23;20017;-77
2021/08/07 08:56:18;;;;;;;78.57;66.93;;;19.30;99.90;;;;;;6192017;23;20013;-75
2021/08/07 08:58:45;;;;;;;85.88;75.75;;;19.30;99.90;;;;;;6180291;23;20025;-78
2021/08/07 09:01:10;;;;;;;87.50;72.88;;;19.30;99.90;;;;;;6192368;23;20081;-74
2021/08/07 09:04:10;;;;;;;132.30;101.57;;;19.30;99.90;;;;;;6182256;23;20058;-78
2021/08/07 09:06:36;;;;;;;78.82;58.83;;;19.40;99.90;;;;;;6156813;23;20279;-75
2021/08/07 09:09:05;;;;;;;85.03;76.95;;;19.40;99.90;;;;;;6181539;23;20104;-75
2021/08/07 09:11:31;;;;;;;130.02;97.45;;;19.60;99.90;;;;;;6183920;23;20109;-76
2021/08/07 09:14:18;;;;;;;63.92;56.75;;;19.70;99.90;;;;;;6181998;23;20447;-78
2021/08/07 09:17:00;;;;;;;64.13;57.35;;;19.90;99.90;;;;;;6184310;23;20017;-76
2021/08/07 09:19:27;;;;;;;91.78;73.10;;;20.00;99.90;;;;;;6182408;23;20071;-75
2021/08/07 09:22:13;;;;;;;88.72;79.13;;;20.20;99.90;;;;;;6211968;23;20023;-76
2021/08/07 09:25:13;;;;;;;95.68;75.45;;;20.30;99.90;;;;;;6186314;23;20456;-76
2021/08/07 09:27:48;;;;;;;87.75;72.95;;;20.40;99.90;;;;;;6092871;23;20616;-75
2021/08/07 09:30:16;;;;;;;63.28;55.63;;;20.40;99.90;;;;;;6093531;23;20046;-79
2021/08/07 09:33:08;;;;;;;100.32;73.93;;;20.50;99.90;;;;;;6096720;23;20442;-76
2021/08/07 09:35:38;;;;;;;193.00;142.80;;;20.70;99.90;;;;;;6069834;23;20077;-79
2021/08/07 09:38:23;;;;;;;124.85;87.07;;;20.80;99.90;;;;;;6043875;23;20308;-77
2021/08/07 09:41:03;;;;;;;110.65;84.45;;;20.90;99.90;;;;;;6067403;23;20023;-75
2021/08/07 09:43:29;;;;;;;98.13;76.65;;;21.10;99.90;;;;;;6077815;23;20601;-75
2021/08/07 09:46:20;;;;;;;144.23;105.07;;;21.00;99.90;;;;;;6095086;23;20057;-76
2021/08/07 09:48:48;;;;;;;133.05;105.40;;;21.00;99.90;;;;;;6035147;23;20019;-80
2021/08/07 09:51:23;;;;;;;80.40;67.15;;;21.20;99.90;;;;;;6009929;23;20015;-78
2021/08/07 09:53:59;;;;;;;;;;;21.30;99.90;;;;;;5986800;23;20038;-77
2021/08/07 09:56:25;;;;;;;132.05;102.28;;;21.30;99.90;;;;;;6045163;23;20008;-76
2021/08/07 09:59:08;;;;;;;157.15;117.10;;;21.30;99.90;;;;;;6034075;23;20023;-75
2021/08/07 10:01:35;;;;;;;127.93;88.10;;;21.30;99.90;;;;;;6020513;23;20549;-76
2021/08/07 10:04:11;;;;;;;132.57;96.18;;;21.50;99.90;;;;;;6059138;23;20101;-77
2021/08/07 10:06:38;;;;;;;161.48;120.85;;;21.70;99.90;;;;;;6096279;23;20387;-78
2021/08/07 10:09:05;;;;;;;141.55;103.43;;;21.90;99.90;;;;;;6096086;23;20048;-76
2021/08/07 10:11:31;;;;;;;97.40;72.30;;;21.70;99.90;;;;;;6097190;23;20554;-74
2021/08/07 10:13:57;;;;;;;69.20;49.17;;;21.90;99.90;;;;;;6096187;23;20438;-76
2021/08/07 10:16:23;;;;;;;163.80;118.65;;;22.20;99.90;;;;;;6106246;23;20256;-76
2021/08/07 10:18:51;;;;;;;90.43;68.10;;;22.20;99.90;;;;;;6096801;23;20319;-76
2021/08/07 10:21:18;;;;;;;121.43;85.32;;;22.40;99.90;;;;;;6072098;23;20109;-78
2021/08/07 10:23:45;;;;;;;144.40;104.25;;;22.40;99.90;;;;;;6120284;23;20048;-81
2021/08/07 10:26:16;;;;;;;123.00;87.10;;;22.60;99.90;;;;;;6187593;23;20071;-79
2021/08/07 10:28:56;;;;;;;148.27;98.07;;;23.10;99.90;;;;;;6186809;23;20123;-79
2021/08/07 10:31:24;;;;;;;190.38;128.30;;;23.10;99.90;;;;;;6213490;23;20027;-80
2021/08/07 10:33:56;;;;;;;115.35;82.47;;;22.90;99.90;;;;;;6186878;23;20108;-79
2021/08/07 10:36:23;;;;;;;209.13;145.18;;;22.70;99.90;;;;;;6214390;23;20421;-80
2021/08/07 10:38:51;;;;;;;122.85;91.38;;;22.90;99.90;;;;;;6222828;23;20009;-79
2021/08/07 10:41:20;;;;;;;214.10;167.50;;;23.10;99.90;;;;;;6187682;23;20008;-77
2021/08/07 10:43:51;;;;;;;204.15;148.60;;;23.30;99.90;;;;;;6222280;23;20016;-77
2021/08/07 10:46:17;;;;;;;118.68;86.03;;;23.10;99.90;;;;;;6183705;23;20383;-76
2021/08/07 10:48:46;;;;;;;241.75;181.73;;;22.90;99.90;;;;;;6212070;23;20091;-79
2021/08/07 10:51:24;;;;;;;103.55;74.75;;;23.30;99.90;;;;;;6186299;23;20008;-78
2021/08/07 10:53:51;;;;;;;120.30;87.85;;;23.30;99.90;;;;;;6222058;23;20039;-77
2021/08/07 10:56:28;;;;;;;198.82;145.48;;;23.50;99.90;;;;;;6223498;23;20019;-78
2021/08/07 10:59:22;;;;;;;136.85;91.80;;;23.40;99.90;;;;;;6222218;23;20027;-77
2021/08/07 11:01:50;;;;;;;193.45;153.75;;;23.50;99.90;;;;;;6092047;23;20385;-77
2021/08/07 11:04:16;;;;;;;156.43;105.38;;;23.50;99.90;;;;;;6091114;23;20113;-78
2021/08/07 11:06:42;;;;;;;176.88;130.75;;;23.70;99.90;;;;;;6095284;23;20042;-78
2021/08/07 11:09:31;;;;;;;203.25;145.23;;;24.10;99.90;;;;;;6065919;23;20022;-78
2021/08/07 11:12:11;;;;;;;166.55;116.45;;;24.30;99.90;;;;;;6067550;23;20034;-77
2021/08/07 11:14:37;;;;;;;194.02;138.27;;;24.60;99.90;;;;;;6091108;23;20153;-80
2021/08/07 11:17:05;;;;;;;94.70;70.18;;;24.60;99.90;;;;;;6077941;23;20170;-78
2021/08/07 11:23:08;;;;;;;183.35;127.43;;;24.90;99.90;;;;;;6062057;23;20033;-79
2021/08/07 11:25:51;;;;;;;156.93;110.80;;;25.20;99.90;;;;;;6037622;23;20099;-80
2021/08/07 11:28:19;;;;;;;152.48;109.55;;;25.00;99.40;;;;;;6037627;23;20018;-80
2021/08/07 11:30:45;;;;;;;133.82;91.90;;;24.90;99.90;;;;;;6072137;23;20082;-80
2021/08/07 11:33:13;;;;;;;151.73;98.20;;;25.00;99.90;;;;;;6061485;23;20089;-80
2021/08/07 11:35:57;;;;;;;128.93;92.45;;;25.30;99.90;;;;;;6047781;23;20023;-80
2021/08/07 11:38:25;;;;;;;171.55;110.22;;;25.00;98.80;;;;;;6109164;23;20453;-78
2021/08/07 11:41:06;;;;;;;151.98;98.90;;;24.90;99.30;;;;;;6155233;23;20413;-79
2021/08/07 11:43:43;;;;;;;151.00;96.50;;;24.90;99.90;;;;;;6165578;23;20021;-79
2021/08/07 11:46:17;;;;;;;148.20;101.53;;;25.30;99.90;;;;;;6191732;23;20009;-79
2021/08/07 11:48:53;;;;;;;115.50;84.05;;;25.30;99.90;;;;;;6130492;23;20013;-76
2021/08/07 11:51:25;;;;;;;;;;;25.60;99.60;;;;;;6156585;23;20039;-75
2021/08/07 11:53:52;;;;;;;142.85;95.93;;;25.80;96.40;;;;;;6164772;23;19916;-75
2021/08/07 11:56:20;;;;;;;217.50;167.00;;;26.00;97.60;;;;;;6191203;23;20068;-74
2021/08/07 11:58:53;;;;;;;128.07;89.82;;;25.80;97.50;;;;;;6191749;23;20109;-75
2021/08/07 12:01:20;;;;;;;134.50;89.50;;;25.90;97.10;;;;;;6191562;23;20436;-76
2021/08/07 12:03:50;;;;;;;92.53;68.10;;;26.10;96.60;;;;;;6191562;23;20020;-76
2021/08/07 12:06:21;;;;;;;132.32;88.15;;;26.20;95.80;;;;;;6183198;23;20013;-76
2021/08/07 12:08:47;;;;;;;126.07;85.97;;;26.20;95.00;;;;;;6190861;23;20009;-76
2021/08/07 12:11:15;;;;;;;107.22;72.60;;;26.30;96.50;;;;;;6165347;23;20017;-76
2021/08/07 12:13:48;;;;;;;128.13;82.95;;;26.30;96.40;;;;;;6181509;23;20072;-77
2021/08/07 12:16:16;;;;;;;167.80;121.45;;;26.10;96.00;;;;;;6191207;23;20283;-78
2021/08/07 12:18:52;;;;;;;;;;;25.80;96.20;;;;;;6156875;23;20013;-77
2021/08/07 12:21:32;;;;;;;95.78;68.57;;;25.60;96.10;;;;;;6159838;23;20296;-77
2021/08/07 12:24:09;;;;;;;151.73;98.00;;;25.40;96.80;;;;;;6183053;23;20024;-79
2021/08/07 12:26:41;;;;;;;128.63;88.13;;;25.30;97.60;;;;;;6211157;23;20012;-78
2021/08/07 12:29:10;;;;;;;167.85;111.10;;;25.70;96.60;;;;;;6192991;23;20012;-77
2021/08/07 12:31:49;;;;;;;115.63;82.65;;;26.00;97.70;;;;;;6183969;23;20070;-78
2021/08/07 12:34:20;;;;;;;100.45;71.43;;;26.50;97.90;;;;;;6210023;23;20044;-77
2021/08/07 12:37:20;;;;;;;112.60;77.32;;;26.50;96.80;;;;;;6185268;23;20020;-78